createdAt,value
2018-03-16T00:00:09.395Z,63.82
2018-03-16T00:00:41.017Z,63.86
2018-03-16T00:01:12.697Z,63.79
2018-03-16T00:01:44.366Z,63.70
2018-03-16T00:02:15.990Z,63.75
2018-03-16T00:02:47.614Z,63.71
2018-03-16T00:03:19.242Z,63.77
2018-03-16T00:03:50.870Z,63.68
2018-03-16T00:04:22.494Z,63.72
2018-03-16T00:04:54.122Z,63.69
2018-03-16T00:05:25.750Z,63.64
2018-03-16T00:05:57.373Z,63.64
2018-03-16T00:06:28.998Z,63.59
2018-03-16T00:07:00.666Z,63.61
2018-03-16T00:07:32.302Z,63.54
2018-03-16T00:08:03.931Z,63.53
2018-03-16T00:08:35.555Z,63.49
2018-03-16T00:09:07.181Z,63.58
2018-03-16T00:09:38.806Z,63.61
2018-03-16T00:10:10.435Z,63.60
2018-03-16T00:10:42.066Z,63.66
2018-03-16T00:11:13.691Z,63.64
2018-03-16T00:11:45.314Z,63.57
2018-03-16T00:12:16.991Z,63.66
2018-03-16T00:12:48.615Z,63.69
2018-03-16T00:13:20.238Z,63.69
2018-03-16T00:13:51.862Z,63.58
2018-03-16T00:14:23.486Z,63.60
2018-03-16T00:14:55.118Z,63.68
2018-03-16T00:15:26.742Z,63.73
2018-03-16T00:15:58.370Z,63.81
2018-03-16T00:16:29.989Z,63.79
2018-03-16T00:17:01.618Z,63.70
2018-03-16T00:17:33.274Z,63.54
2018-03-16T00:18:04.906Z,63.50
2018-03-16T00:18:36.530Z,63.51
2018-03-16T00:19:08.185Z,63.54
2018-03-16T00:19:39.809Z,63.55
2018-03-16T00:20:11.429Z,63.38
2018-03-16T00:20:43.053Z,63.37
2018-03-16T00:21:14.687Z,63.26
2018-03-16T00:21:46.309Z,63.35
2018-03-16T00:22:17.937Z,63.23
2018-03-16T00:22:49.607Z,63.22
2018-03-16T00:23:21.234Z,63.21
2018-03-16T00:23:52.863Z,63.20
2018-03-16T00:24:24.511Z,63.07
2018-03-16T00:24:56.138Z,63.03
2018-03-16T00:25:27.757Z,62.96
2018-03-16T00:25:59.381Z,63.01
2018-03-16T00:26:31.038Z,62.86
2018-03-16T00:27:02.662Z,62.88
2018-03-16T00:27:34.291Z,62.80
2018-03-16T00:28:05.918Z,62.74
2018-03-16T00:28:37.543Z,62.72
2018-03-16T00:29:09.182Z,62.63
2018-03-16T00:29:40.812Z,62.48
2018-03-16T00:30:12.442Z,62.46
2018-03-16T00:30:44.089Z,62.44
2018-03-16T00:31:15.718Z,62.27
2018-03-16T00:31:47.400Z,62.41
2018-03-16T00:32:19.026Z,62.54
2018-03-16T00:32:50.654Z,62.69
2018-03-16T00:33:22.278Z,62.73
2018-03-16T00:33:53.910Z,62.76
2018-03-16T00:34:25.535Z,62.79
2018-03-16T00:34:57.166Z,62.60
2018-03-16T00:35:28.793Z,62.91
2018-03-16T00:36:00.422Z,62.84
2018-03-16T00:36:32.051Z,62.51
2018-03-16T00:37:03.714Z,62.65
2018-03-16T00:37:35.337Z,62.53
2018-03-16T00:38:06.965Z,62.29
2018-03-16T00:38:38.590Z,62.29
2018-03-16T00:39:10.266Z,62.08
2018-03-16T00:39:41.894Z,62.27
2018-03-16T00:40:13.562Z,62.23
2018-03-16T00:40:45.190Z,62.15
2018-03-16T00:41:16.817Z,62.26
2018-03-16T00:41:48.441Z,62.41
2018-03-16T00:42:20.065Z,62.09
2018-03-16T00:42:51.747Z,62.20
2018-03-16T00:43:23.378Z,62.19
2018-03-16T00:43:55.006Z,62.22
2018-03-16T00:44:26.645Z,62.41
2018-03-16T00:44:58.292Z,62.29
2018-03-16T00:45:29.938Z,62.54
2018-03-16T00:46:01.565Z,62.33
2018-03-16T00:46:33.210Z,62.35
2018-03-16T00:47:04.842Z,62.41
2018-03-16T00:47:36.465Z,62.40
2018-03-16T00:48:08.137Z,62.56
2018-03-16T00:48:39.764Z,62.35
2018-03-16T00:49:11.386Z,62.48
2018-03-16T00:49:43.022Z,62.35
2018-03-16T00:50:14.650Z,62.35
2018-03-16T00:50:46.294Z,62.61
2018-03-16T00:51:18.829Z,62.53
2018-03-16T00:51:50.454Z,62.64
2018-03-16T00:52:22.078Z,62.48
2018-03-16T00:52:53.710Z,62.67
2018-03-16T00:53:25.420Z,62.65
2018-03-16T00:53:57.038Z,62.64
2018-03-16T00:54:28.662Z,62.79
2018-03-16T00:55:00.290Z,62.83
2018-03-16T00:55:31.919Z,62.66
2018-03-16T00:56:03.542Z,62.77
2018-03-16T00:56:35.171Z,62.92
2018-03-16T00:57:06.794Z,63.05
2018-03-16T00:57:38.423Z,62.78
2018-03-16T00:58:10.046Z,62.85
2018-03-16T00:58:41.707Z,62.87
2018-03-16T00:59:13.333Z,63.00
2018-03-16T00:59:44.966Z,63.06
2018-03-16T01:00:16.590Z,63.09
2018-03-16T01:00:48.218Z,63.20
2018-03-16T01:01:19.841Z,63.22
2018-03-16T01:01:51.479Z,63.26
2018-03-16T01:02:23.106Z,63.40
2018-03-16T01:02:54.774Z,63.43
2018-03-16T01:03:26.402Z,63.54
2018-03-16T01:03:58.078Z,63.60
2018-03-16T01:04:29.701Z,64.16
2018-03-16T01:05:01.335Z,63.83
2018-03-16T01:05:32.958Z,63.87
2018-03-16T01:06:04.583Z,63.95
2018-03-16T01:06:36.205Z,63.96
2018-03-16T01:07:07.838Z,64.13
2018-03-16T01:07:39.462Z,64.13
2018-03-16T01:08:11.090Z,64.19
2018-03-16T01:08:42.715Z,64.37
2018-03-16T01:09:14.342Z,64.30
2018-03-16T01:09:45.966Z,64.45
2018-03-16T01:10:17.595Z,64.37
2018-03-16T01:10:49.227Z,64.48
2018-03-16T01:11:20.850Z,64.41
2018-03-16T01:11:52.474Z,64.49
2018-03-16T01:12:24.096Z,64.49
2018-03-16T01:12:55.731Z,64.62
2018-03-16T01:13:27.359Z,64.66
2018-03-16T01:13:59.035Z,64.71
2018-03-16T01:14:30.694Z,64.69
2018-03-16T01:15:02.327Z,64.79
2018-03-16T01:15:33.950Z,64.84
2018-03-16T01:16:05.574Z,64.82
2018-03-16T01:16:37.201Z,64.92
2018-03-16T01:17:08.827Z,64.96
2018-03-16T01:17:40.450Z,64.97
2018-03-16T01:18:12.095Z,65.01
2018-03-16T01:18:43.723Z,65.11
2018-03-16T01:19:15.355Z,65.21
2018-03-16T01:19:46.982Z,65.13
2018-03-16T01:20:18.606Z,65.18
2018-03-16T01:20:50.238Z,65.27
2018-03-16T01:21:21.871Z,65.24
2018-03-16T01:21:53.500Z,65.38
2018-03-16T01:22:25.126Z,65.48
2018-03-16T01:22:56.750Z,65.42
2018-03-16T01:23:28.410Z,65.59
2018-03-16T01:24:00.037Z,65.45
2018-03-16T01:24:31.671Z,65.52
2018-03-16T01:25:03.308Z,65.51
2018-03-16T01:25:34.933Z,65.65
2018-03-16T01:26:06.553Z,65.81
2018-03-16T01:26:38.182Z,65.78
2018-03-16T01:27:09.822Z,65.70
2018-03-16T01:27:41.454Z,65.54
2018-03-16T01:28:13.118Z,65.62
2018-03-16T01:28:44.746Z,65.67
2018-03-16T01:29:16.373Z,65.68
2018-03-16T01:29:47.993Z,65.91
2018-03-16T01:30:19.659Z,66.04
2018-03-16T01:30:51.282Z,65.81
2018-03-16T01:31:22.906Z,65.89
2018-03-16T01:31:54.535Z,65.77
2018-03-16T01:32:26.163Z,65.80
2018-03-16T01:32:57.786Z,65.70
2018-03-16T01:33:29.442Z,65.85
2018-03-16T01:34:01.074Z,65.88
2018-03-16T01:34:32.706Z,65.71
2018-03-16T01:35:04.329Z,65.77
2018-03-16T01:35:35.954Z,65.88
2018-03-16T01:36:07.582Z,65.81
2018-03-16T01:36:39.205Z,65.90
2018-03-16T01:37:11.846Z,65.75
2018-03-16T01:37:43.470Z,65.75
2018-03-16T01:38:15.095Z,65.87
2018-03-16T01:38:46.722Z,65.75
2018-03-16T01:39:18.345Z,65.68
2018-03-16T01:39:49.969Z,65.71
2018-03-16T01:40:21.650Z,65.65
2018-03-16T01:40:53.280Z,65.43
2018-03-16T01:41:24.910Z,65.42
2018-03-16T01:41:56.534Z,65.35
2018-03-16T01:42:28.162Z,65.34
2018-03-16T01:42:59.786Z,65.19
2018-03-16T01:43:31.407Z,65.04
2018-03-16T01:44:03.082Z,64.92
2018-03-16T01:44:34.709Z,64.98
2018-03-16T01:45:06.339Z,64.84
2018-03-16T01:45:38.007Z,64.79
2018-03-16T01:46:09.622Z,64.64
2018-03-16T01:46:41.250Z,64.49
2018-03-16T01:47:12.879Z,64.50
2018-03-16T01:47:44.510Z,64.38
2018-03-16T01:48:16.138Z,64.28
2018-03-16T01:48:47.818Z,64.36
2018-03-16T01:49:19.446Z,64.52
2018-03-16T01:49:51.071Z,64.58
2018-03-16T01:50:22.706Z,64.52
2018-03-16T01:50:54.330Z,64.43
2018-03-16T01:51:25.958Z,64.48
2018-03-16T01:51:57.582Z,64.20
2018-03-16T01:52:29.206Z,64.18
2018-03-16T01:53:00.838Z,64.17
2018-03-16T01:53:32.470Z,64.03
2018-03-16T01:54:04.154Z,64.22
2018-03-16T01:54:35.777Z,64.06
2018-03-16T01:55:07.406Z,64.07
2018-03-16T01:55:39.030Z,64.02
2018-03-16T01:56:10.655Z,64.23
2018-03-16T01:56:42.326Z,63.89
2018-03-16T01:57:13.950Z,63.80
2018-03-16T01:57:45.626Z,63.97
2018-03-16T01:58:17.249Z,63.68
2018-03-16T01:58:48.875Z,63.55
2018-03-16T01:59:20.507Z,63.43
2018-03-16T01:59:52.138Z,63.42
2018-03-16T02:00:23.766Z,63.62
2018-03-16T02:00:55.395Z,63.36
2018-03-16T02:01:27.019Z,63.58
2018-03-16T02:01:58.646Z,63.24
2018-03-16T02:02:30.270Z,63.38
2018-03-16T02:03:01.942Z,63.24
2018-03-16T02:03:33.566Z,63.16
2018-03-16T02:04:05.234Z,63.23
2018-03-16T02:04:36.861Z,63.16
2018-03-16T02:05:08.486Z,63.05
2018-03-16T02:05:40.113Z,63.27
2018-03-16T02:06:11.741Z,63.29
2018-03-16T02:06:43.362Z,63.21
2018-03-16T02:07:14.990Z,63.14
2018-03-16T02:07:46.614Z,63.15
2018-03-16T02:08:18.281Z,63.39
2018-03-16T02:08:49.907Z,63.57
2018-03-16T02:09:21.537Z,63.47
2018-03-16T02:09:53.162Z,63.54
2018-03-16T02:10:24.794Z,63.49
2018-03-16T02:10:56.418Z,63.57
2018-03-16T02:11:28.051Z,63.68
2018-03-16T02:11:59.678Z,63.80
2018-03-16T02:12:31.302Z,63.85
2018-03-16T02:13:02.927Z,63.99
2018-03-16T02:13:34.559Z,63.82
2018-03-16T02:14:06.190Z,63.93
2018-03-16T02:14:37.823Z,63.74
2018-03-16T02:15:09.450Z,63.91
2018-03-16T02:15:41.073Z,63.94
2018-03-16T02:16:12.698Z,64.10
2018-03-16T02:16:44.379Z,64.14
2018-03-16T02:17:16.006Z,64.12
2018-03-16T02:17:47.633Z,64.03
2018-03-16T02:18:19.258Z,64.30
2018-03-16T02:18:50.882Z,64.30
2018-03-16T02:19:22.518Z,64.14
2018-03-16T02:19:54.150Z,64.15
2018-03-16T02:20:25.777Z,64.35
2018-03-16T02:20:57.398Z,64.39
2018-03-16T02:21:29.026Z,64.83
2018-03-16T02:22:00.698Z,64.57
2018-03-16T02:22:32.342Z,64.58
2018-03-16T02:23:03.974Z,64.56
2018-03-16T02:23:35.598Z,64.60
2018-03-16T02:24:07.222Z,64.71
2018-03-16T02:24:38.854Z,64.71
2018-03-16T02:25:10.477Z,64.76
2018-03-16T02:25:42.109Z,64.69
2018-03-16T02:26:13.774Z,64.70
2018-03-16T02:26:45.403Z,64.75
2018-03-16T02:27:17.026Z,64.71
2018-03-16T02:27:48.654Z,64.78
2018-03-16T02:28:20.283Z,64.75
2018-03-16T02:28:51.906Z,64.66
2018-03-16T02:29:23.535Z,64.69
2018-03-16T02:29:55.163Z,64.69
2018-03-16T02:30:26.802Z,64.80
2018-03-16T02:30:58.430Z,64.71
2018-03-16T02:31:30.104Z,64.81
2018-03-16T02:32:01.727Z,64.81
2018-03-16T02:32:33.351Z,64.68
2018-03-16T02:33:04.981Z,64.67
2018-03-16T02:33:36.611Z,64.63
2018-03-16T02:34:08.242Z,64.71
2018-03-16T02:34:39.875Z,64.72
2018-03-16T02:35:11.502Z,64.78
2018-03-16T02:35:43.140Z,64.67
2018-03-16T02:36:14.814Z,65.14
2018-03-16T02:36:46.443Z,65.04
2018-03-16T02:37:18.138Z,65.05
2018-03-16T02:37:49.772Z,65.06
2018-03-16T02:38:21.448Z,65.17
2018-03-16T02:38:53.088Z,65.24
2018-03-16T02:39:24.721Z,65.11
2018-03-16T02:39:56.346Z,65.06
2018-03-16T02:40:28.030Z,65.17
2018-03-16T02:40:59.655Z,65.22
2018-03-16T02:41:31.294Z,65.45
2018-03-16T02:42:02.930Z,65.32
2018-03-16T02:42:34.564Z,65.38
2018-03-16T02:43:06.195Z,65.36
2018-03-16T02:43:37.822Z,65.42
2018-03-16T02:44:09.447Z,65.44
2018-03-16T02:44:41.073Z,65.38
2018-03-16T02:45:12.699Z,65.38
2018-03-16T02:45:44.366Z,65.40
2018-03-16T02:46:16.000Z,65.39
2018-03-16T02:46:47.621Z,65.37
2018-03-16T02:47:19.256Z,65.36
2018-03-16T02:47:50.886Z,65.35
2018-03-16T02:48:22.519Z,65.31
2018-03-16T02:48:54.142Z,65.43
2018-03-16T02:49:25.765Z,65.42
2018-03-16T02:49:57.387Z,65.39
2018-03-16T02:50:29.058Z,65.38
2018-03-16T02:51:00.686Z,65.41
2018-03-16T02:51:32.310Z,65.38
2018-03-16T02:52:03.938Z,65.43
2018-03-16T02:52:35.575Z,65.23
2018-03-16T02:53:07.199Z,65.33
2018-03-16T02:53:38.821Z,65.32
2018-03-16T02:54:10.451Z,65.28
2018-03-16T02:54:42.074Z,65.34
2018-03-16T02:55:13.724Z,65.26
2018-03-16T02:55:45.393Z,65.19
2018-03-16T02:56:17.018Z,65.17
2018-03-16T02:56:48.646Z,65.17
2018-03-16T02:57:20.273Z,65.26
2018-03-16T02:57:51.930Z,65.29
2018-03-16T02:58:23.558Z,65.23
2018-03-16T02:58:55.185Z,65.15
2018-03-16T02:59:26.815Z,65.23
2018-03-16T02:59:58.445Z,65.19
2018-03-16T03:00:30.075Z,65.08
2018-03-16T03:01:01.698Z,64.98
2018-03-16T03:01:33.354Z,64.95
2018-03-16T03:02:04.982Z,64.75
2018-03-16T03:02:36.646Z,64.92
2018-03-16T03:03:08.318Z,64.66
2018-03-16T03:03:39.947Z,64.62
2018-03-16T03:04:11.584Z,64.51
2018-03-16T03:04:43.213Z,64.39
2018-03-16T03:05:14.834Z,64.37
2018-03-16T03:05:46.458Z,64.24
2018-03-16T03:06:18.091Z,64.24
2018-03-16T03:06:49.728Z,64.18
2018-03-16T03:07:21.378Z,63.96
2018-03-16T03:07:53.042Z,63.98
2018-03-16T03:08:24.712Z,63.93
2018-03-16T03:08:56.333Z,63.81
2018-03-16T03:09:27.962Z,63.95
2018-03-16T03:09:59.586Z,63.66
2018-03-16T03:10:31.210Z,63.65
2018-03-16T03:11:02.833Z,63.55
2018-03-16T03:11:34.462Z,63.49
2018-03-16T03:12:06.086Z,63.32
2018-03-16T03:12:37.718Z,63.19
2018-03-16T03:13:09.391Z,63.19
2018-03-16T03:13:41.023Z,63.03
2018-03-16T03:14:12.646Z,63.25
2018-03-16T03:14:44.286Z,63.00
2018-03-16T03:15:15.910Z,62.83
2018-03-16T03:15:47.533Z,62.80
2018-03-16T03:16:19.197Z,62.96
2018-03-16T03:16:50.832Z,62.99
2018-03-16T03:17:22.453Z,62.96
2018-03-16T03:17:54.080Z,63.02
2018-03-16T03:18:25.750Z,62.93
2018-03-16T03:18:57.426Z,62.84
2018-03-16T03:19:29.056Z,62.83
2018-03-16T03:20:00.681Z,62.66
2018-03-16T03:20:32.301Z,62.81
2018-03-16T03:21:03.921Z,62.78
2018-03-16T03:21:35.551Z,62.81
2018-03-16T03:22:07.175Z,62.93
2018-03-16T03:22:38.798Z,62.73
2018-03-16T03:23:10.427Z,62.88
2018-03-16T03:23:42.057Z,63.00
2018-03-16T03:24:13.730Z,63.04
2018-03-16T03:24:45.373Z,63.16
2018-03-16T03:25:17.005Z,63.11
2018-03-16T03:25:48.633Z,63.14
2018-03-16T03:26:20.258Z,63.17
2018-03-16T03:26:51.886Z,63.16
2018-03-16T03:27:23.510Z,63.33
2018-03-16T03:27:55.138Z,63.48
2018-03-16T03:28:26.807Z,63.38
2018-03-16T03:28:58.437Z,63.43
2018-03-16T03:29:30.061Z,63.61
2018-03-16T03:30:01.682Z,63.62
2018-03-16T03:30:33.306Z,63.59
2018-03-16T03:31:04.930Z,63.62
2018-03-16T03:31:36.560Z,63.53
2018-03-16T03:32:08.235Z,63.56
2018-03-16T03:32:39.894Z,63.56
2018-03-16T03:33:11.518Z,63.57
2018-03-16T03:33:43.142Z,63.52
2018-03-16T03:34:14.773Z,63.67
2018-03-16T03:34:46.397Z,63.67
2018-03-16T03:35:18.022Z,63.59
2018-03-16T03:35:49.651Z,63.68
2018-03-16T03:36:21.281Z,63.86
2018-03-16T03:36:52.905Z,63.78
2018-03-16T03:37:24.562Z,63.71
2018-03-16T03:37:56.186Z,63.94
2018-03-16T03:38:27.818Z,63.67
2018-03-16T03:38:59.450Z,63.70
2018-03-16T03:39:31.082Z,63.74
2018-03-16T03:40:02.745Z,63.63
2018-03-16T03:40:34.374Z,63.69
2018-03-16T03:41:06.009Z,64.26
2018-03-16T03:41:37.630Z,64.54
2018-03-16T03:42:09.254Z,64.39
2018-03-16T03:42:41.005Z,64.36
2018-03-16T03:43:12.635Z,64.37
2018-03-16T03:43:44.262Z,63.81
2018-03-16T03:44:15.886Z,63.52
2018-03-16T03:44:47.558Z,63.31
2018-03-16T03:45:19.190Z,63.15
2018-03-16T03:45:50.814Z,63.21
2018-03-16T03:46:22.442Z,63.04
2018-03-16T03:46:54.126Z,63.04
2018-03-16T03:47:25.753Z,62.99
2018-03-16T03:47:57.383Z,62.98
2018-03-16T03:48:29.010Z,62.91
2018-03-16T03:49:00.634Z,62.83
2018-03-16T03:49:32.364Z,62.75
2018-03-16T03:50:04.037Z,62.84
2018-03-16T03:50:35.671Z,62.85
2018-03-16T03:51:07.297Z,62.55
2018-03-16T03:51:38.922Z,62.63
2018-03-16T03:52:10.569Z,62.48
2018-03-16T03:52:42.238Z,62.50
2018-03-16T03:53:13.861Z,62.61
2018-03-16T03:53:45.486Z,62.96
2018-03-16T03:54:17.124Z,62.90
2018-03-16T03:54:48.774Z,63.22
2018-03-16T03:55:20.403Z,63.22
2018-03-16T03:55:52.030Z,62.94
2018-03-16T03:56:23.658Z,62.87
2018-03-16T03:56:55.285Z,62.47
2018-03-16T03:57:26.909Z,62.06
2018-03-16T03:57:58.538Z,61.75
2018-03-16T03:58:30.169Z,61.62
2018-03-16T03:59:01.794Z,61.45
2018-03-16T03:59:33.426Z,61.20
2018-03-16T04:00:05.050Z,61.19
2018-03-16T04:00:36.673Z,61.09
2018-03-16T04:01:08.303Z,61.23
2018-03-16T04:01:39.982Z,61.11
2018-03-16T04:02:11.613Z,61.12
2018-03-16T04:02:43.242Z,61.15
2018-03-16T04:03:14.867Z,61.17
2018-03-16T04:03:46.494Z,61.16
2018-03-16T04:04:18.121Z,61.22
2018-03-16T04:04:49.750Z,61.29
2018-03-16T04:05:21.375Z,61.29
2018-03-16T04:05:53.004Z,61.27
2018-03-16T04:06:24.629Z,61.35
2018-03-16T04:06:56.293Z,61.38
2018-03-16T04:07:27.924Z,61.42
2018-03-16T04:07:59.545Z,61.39
2018-03-16T04:08:31.176Z,61.35
2018-03-16T04:09:02.823Z,61.36
2018-03-16T04:09:34.455Z,61.35
2018-03-16T04:10:06.086Z,61.47
2018-03-16T04:10:37.710Z,61.41
2018-03-16T04:11:09.333Z,61.46
2018-03-16T04:11:40.961Z,61.49
2018-03-16T04:12:12.582Z,61.41
2018-03-16T04:12:44.205Z,61.43
2018-03-16T04:13:15.826Z,61.42
2018-03-16T04:13:47.445Z,61.42
2018-03-16T04:14:19.070Z,61.44
2018-03-16T04:14:50.756Z,61.44
2018-03-16T04:15:22.350Z,61.44
2018-03-16T04:15:53.986Z,61.40
2018-03-16T04:16:25.654Z,61.43
2018-03-16T04:16:57.491Z,61.42
2018-03-16T04:17:29.114Z,61.44
2018-03-16T04:18:00.738Z,61.41
2018-03-16T04:18:32.362Z,61.40
2018-03-16T04:19:03.990Z,61.40
2018-03-16T04:19:35.650Z,61.38
2018-03-16T04:20:07.337Z,61.41
2018-03-16T04:20:38.962Z,61.36
2018-03-16T04:21:10.589Z,61.28
2018-03-16T04:21:42.219Z,61.33
2018-03-16T04:22:13.869Z,61.30
2018-03-16T04:22:45.506Z,61.30
2018-03-16T04:23:17.130Z,61.37
2018-03-16T04:23:48.753Z,61.36
2018-03-16T04:24:20.382Z,61.26
2018-03-16T04:24:52.011Z,61.16
2018-03-16T04:25:23.682Z,61.19
2018-03-16T04:25:55.318Z,61.17
2018-03-16T04:26:26.969Z,61.11
2018-03-16T04:26:58.599Z,61.10
2018-03-16T04:27:30.229Z,61.11
2018-03-16T04:28:01.862Z,61.10
2018-03-16T04:28:33.525Z,61.09
2018-03-16T04:29:05.158Z,61.04
2018-03-16T04:29:36.791Z,61.03
2018-03-16T04:30:08.458Z,61.03
2018-03-16T04:30:40.091Z,60.99
2018-03-16T04:31:11.718Z,60.97
2018-03-16T04:31:43.347Z,60.94
2018-03-16T04:32:14.974Z,60.86
2018-03-16T04:32:46.598Z,60.78
2018-03-16T04:33:18.226Z,60.70
2018-03-16T04:33:49.854Z,60.65
2018-03-16T04:34:21.483Z,60.61
2018-03-16T04:34:53.106Z,60.66
2018-03-16T04:35:24.770Z,60.62
2018-03-16T04:35:56.397Z,60.63
2018-03-16T04:36:28.022Z,60.57
2018-03-16T04:36:59.681Z,60.53
2018-03-16T04:37:31.303Z,60.49
2018-03-16T04:38:02.928Z,60.39
2018-03-16T04:38:34.555Z,60.37
2018-03-16T04:39:06.178Z,60.28
2018-03-16T04:39:37.806Z,60.31
2018-03-16T04:40:09.430Z,60.24
2018-03-16T04:40:41.099Z,60.25
2018-03-16T04:41:12.726Z,60.29
2018-03-16T04:41:44.353Z,60.24
2018-03-16T04:42:15.978Z,60.20
2018-03-16T04:42:47.607Z,60.23
2018-03-16T04:43:19.234Z,60.21
2018-03-16T04:43:50.858Z,60.13
2018-03-16T04:44:22.498Z,60.10
2018-03-16T04:44:54.166Z,59.98
2018-03-16T04:45:25.799Z,59.97
2018-03-16T04:45:57.422Z,59.96
2018-03-16T04:46:29.047Z,59.94
2018-03-16T04:47:00.714Z,60.04
2018-03-16T04:47:32.338Z,60.10
2018-03-16T04:48:03.961Z,60.11
2018-03-16T04:48:35.582Z,60.12
2018-03-16T04:49:07.202Z,59.93
2018-03-16T04:49:38.831Z,59.95
2018-03-16T04:50:10.457Z,59.93
2018-03-16T04:50:42.087Z,59.82
2018-03-16T04:51:13.711Z,59.90
2018-03-16T04:51:45.347Z,59.87
2018-03-16T04:52:16.970Z,59.85
2018-03-16T04:52:48.599Z,59.91
2018-03-16T04:53:20.338Z,59.90
2018-03-16T04:53:52.003Z,59.84
2018-03-16T04:54:23.630Z,59.95
2018-03-16T04:54:55.262Z,59.86
2018-03-16T04:55:26.890Z,59.92
2018-03-16T04:55:58.522Z,59.95
2018-03-16T04:56:30.148Z,59.93
2018-03-16T04:57:01.774Z,59.99
2018-03-16T04:57:33.450Z,59.94
2018-03-16T04:58:05.086Z,59.91
2018-03-16T04:58:36.709Z,59.92
2018-03-16T04:59:08.338Z,59.95
2018-03-16T04:59:39.966Z,59.92
2018-03-16T05:00:11.594Z,59.96
2018-03-16T05:00:43.222Z,59.99
2018-03-16T05:01:14.846Z,59.98
2018-03-16T05:01:46.507Z,59.95
2018-03-16T05:02:18.278Z,59.98
2018-03-16T05:02:49.904Z,60.08
2018-03-16T05:03:21.529Z,60.11
2018-03-16T05:03:53.159Z,60.12
2018-03-16T05:04:24.786Z,60.04
2018-03-16T05:04:56.410Z,60.06
2018-03-16T05:05:28.039Z,60.01
2018-03-16T05:05:59.662Z,60.09
2018-03-16T05:06:31.330Z,60.03
2018-03-16T05:07:02.963Z,60.06
2018-03-16T05:07:34.643Z,60.10
2018-03-16T05:08:06.323Z,60.11
2018-03-16T05:08:38.530Z,60.20
2018-03-16T05:09:10.163Z,60.24
2018-03-16T05:09:41.798Z,60.27
2018-03-16T05:10:13.427Z,60.38
2018-03-16T05:10:45.157Z,60.31
2018-03-16T05:11:16.794Z,60.19
2018-03-16T05:11:48.459Z,60.28
2018-03-16T05:12:20.099Z,60.33
2018-03-16T05:12:51.726Z,60.40
2018-03-16T05:13:23.356Z,60.49
2018-03-16T05:13:54.990Z,60.44
2018-03-16T05:14:26.619Z,60.55
2018-03-16T05:14:58.255Z,60.62
2018-03-16T05:15:29.886Z,60.64
2018-03-16T05:16:01.510Z,60.74
2018-03-16T05:16:33.139Z,60.72
2018-03-16T05:17:04.763Z,60.72
2018-03-16T05:17:36.386Z,60.81
2018-03-16T05:18:08.015Z,60.80
2018-03-16T05:18:39.638Z,60.74
2018-03-16T05:19:11.262Z,60.75
2018-03-16T05:19:42.890Z,60.82
2018-03-16T05:20:14.522Z,60.80
2018-03-16T05:20:46.189Z,60.79
2018-03-16T05:21:17.818Z,60.85
2018-03-16T05:21:49.442Z,60.84
2018-03-16T05:22:21.071Z,60.81
2018-03-16T05:22:52.695Z,60.80
2018-03-16T05:23:24.370Z,60.76
2018-03-16T05:23:55.993Z,60.73
2018-03-16T05:24:27.622Z,60.73
2018-03-16T05:24:59.245Z,60.64
2018-03-16T05:25:30.875Z,60.61
2018-03-16T05:26:02.510Z,60.50
2018-03-16T05:26:34.139Z,60.42
2018-03-16T05:27:05.810Z,60.46
2018-03-16T05:27:37.438Z,60.37
2018-03-16T05:28:09.063Z,60.44
2018-03-16T05:28:40.690Z,60.42
2018-03-16T05:29:12.319Z,60.40
2018-03-16T05:29:43.941Z,60.38
2018-03-16T05:30:15.562Z,60.34
2018-03-16T05:30:47.241Z,60.31
2018-03-16T05:31:18.870Z,60.25
2018-03-16T05:31:50.499Z,60.29
2018-03-16T05:32:22.126Z,60.21
2018-03-16T05:32:53.750Z,60.20
2018-03-16T05:33:25.384Z,60.22
2018-03-16T05:33:57.006Z,60.17
2018-03-16T05:34:28.630Z,60.20
2018-03-16T05:35:00.258Z,60.14
2018-03-16T05:35:31.882Z,60.08
2018-03-16T05:36:03.546Z,59.96
2018-03-16T05:36:35.173Z,59.91
2018-03-16T05:37:06.806Z,59.92
2018-03-16T05:37:38.441Z,59.87
2018-03-16T05:38:10.062Z,59.86
2018-03-16T05:38:41.720Z,59.83
2018-03-16T05:39:13.346Z,59.69
2018-03-16T05:39:44.968Z,59.54
2018-03-16T05:40:16.594Z,59.34
2018-03-16T05:40:48.222Z,59.27
2018-03-16T05:41:19.885Z,59.22
2018-03-16T05:41:51.511Z,59.18
2018-03-16T05:42:23.134Z,59.11
2018-03-16T05:42:54.760Z,59.07
2018-03-16T05:43:26.381Z,58.97
2018-03-16T05:43:58.010Z,59.00
2018-03-16T05:44:29.638Z,58.93
2018-03-16T05:45:01.263Z,58.76
2018-03-16T05:45:32.889Z,58.73
2018-03-16T05:46:04.558Z,58.70
2018-03-16T05:46:36.186Z,58.64
2018-03-16T05:47:07.819Z,58.60
2018-03-16T05:47:39.447Z,58.62
2018-03-16T05:48:11.070Z,58.56
2018-03-16T05:48:42.693Z,58.54
2018-03-16T05:49:14.325Z,58.43
2018-03-16T05:49:45.950Z,58.39
2018-03-16T05:50:17.623Z,58.42
2018-03-16T05:50:49.246Z,58.31
2018-03-16T05:51:20.911Z,58.28
2018-03-16T05:51:52.534Z,58.24
2018-03-16T05:52:24.157Z,58.25
2018-03-16T05:52:55.778Z,58.30
2018-03-16T05:53:27.406Z,58.23
2018-03-16T05:53:59.034Z,58.24
2018-03-16T05:54:30.718Z,58.34
2018-03-16T05:55:02.351Z,58.15
2018-03-16T05:55:34.022Z,58.12
2018-03-16T05:56:05.658Z,58.17
2018-03-16T05:56:37.285Z,58.13
2018-03-16T05:57:08.914Z,58.22
2018-03-16T05:57:40.537Z,58.20
2018-03-16T05:58:12.166Z,58.13
2018-03-16T05:58:43.834Z,58.18
2018-03-16T05:59:15.458Z,58.08
2018-03-16T05:59:47.086Z,58.08
2018-03-16T06:00:18.770Z,57.96
2018-03-16T06:00:50.452Z,58.04
2018-03-16T06:01:22.059Z,58.19
2018-03-16T06:01:53.690Z,58.22
2018-03-16T06:02:25.313Z,58.17
2018-03-16T06:02:56.938Z,58.15
2018-03-16T06:03:28.567Z,58.18
2018-03-16T06:04:00.198Z,58.21
2018-03-16T06:04:31.921Z,58.18
2018-03-16T06:05:03.554Z,58.05
2018-03-16T06:05:35.230Z,58.08
2018-03-16T06:06:06.854Z,58.09
2018-03-16T06:06:38.482Z,58.12
2018-03-16T06:07:10.110Z,58.12
2018-03-16T06:07:41.748Z,58.21
2018-03-16T06:08:13.374Z,58.25
2018-03-16T06:08:44.998Z,58.26
2018-03-16T06:09:16.622Z,58.34
2018-03-16T06:09:48.246Z,58.32
2018-03-16T06:10:19.869Z,58.26
2018-03-16T06:10:51.571Z,58.27
2018-03-16T06:11:23.198Z,58.35
2018-03-16T06:11:54.822Z,58.35
2018-03-16T06:12:26.451Z,58.26
2018-03-16T06:12:58.078Z,58.27
2018-03-16T06:13:29.730Z,58.27
2018-03-16T06:14:01.357Z,58.33
2018-03-16T06:14:32.983Z,58.23
2018-03-16T06:15:04.619Z,58.28
2018-03-16T06:15:36.242Z,58.20
2018-03-16T06:16:07.922Z,58.29
2018-03-16T06:16:39.555Z,58.43
2018-03-16T06:17:11.186Z,58.31
2018-03-16T06:17:42.814Z,58.30
2018-03-16T06:18:14.446Z,58.29
2018-03-16T06:18:46.078Z,58.24
2018-03-16T06:19:17.701Z,58.28
2018-03-16T06:19:49.350Z,58.25
2018-03-16T06:20:20.980Z,58.36
2018-03-16T06:20:52.639Z,58.37
2018-03-16T06:21:24.317Z,58.29
2018-03-16T06:21:55.937Z,58.34
2018-03-16T06:22:27.570Z,58.46
2018-03-16T06:22:59.214Z,58.46
2018-03-16T06:23:30.838Z,58.47
2018-03-16T06:24:02.470Z,58.49
2018-03-16T06:24:34.094Z,58.49
2018-03-16T06:25:05.726Z,58.45
2018-03-16T06:25:37.357Z,58.49
2018-03-16T06:26:08.978Z,58.56
2018-03-16T06:26:40.647Z,58.55
2018-03-16T06:27:12.274Z,58.58
2018-03-16T06:27:43.902Z,58.56
2018-03-16T06:28:15.578Z,58.59
2018-03-16T06:28:47.243Z,58.73
2018-03-16T06:29:18.871Z,58.63
2018-03-16T06:29:50.503Z,58.72
2018-03-16T06:30:22.129Z,58.73
2018-03-16T06:30:53.749Z,58.79
2018-03-16T06:31:25.374Z,58.75
2018-03-16T06:31:57.054Z,58.73
2018-03-16T06:32:28.679Z,58.73
2018-03-16T06:33:00.311Z,58.79
2018-03-16T06:33:31.934Z,58.83
2018-03-16T06:34:03.561Z,58.94
2018-03-16T06:34:35.243Z,58.97
2018-03-16T06:35:06.874Z,59.02
2018-03-16T06:35:38.498Z,59.08
2018-03-16T06:36:10.121Z,59.10
2018-03-16T06:36:41.742Z,59.08
2018-03-16T06:37:13.362Z,59.15
2018-03-16T06:37:45.006Z,59.24
2018-03-16T06:38:16.671Z,59.23
2018-03-16T06:38:48.308Z,59.30
2018-03-16T06:39:19.979Z,59.34
2018-03-16T06:39:51.650Z,59.37
2018-03-16T06:40:23.279Z,59.40
2018-03-16T06:40:54.904Z,59.33
2018-03-16T06:41:26.538Z,59.42
2018-03-16T06:41:58.170Z,59.38
2018-03-16T06:42:29.798Z,59.46
2018-03-16T06:43:01.446Z,59.38
2018-03-16T06:43:33.091Z,59.41
2018-03-16T06:44:04.718Z,59.41
2018-03-16T06:44:36.412Z,59.42
2018-03-16T06:45:08.110Z,59.45
2018-03-16T06:45:39.742Z,59.46
2018-03-16T06:46:11.375Z,59.41
2018-03-16T06:46:43.002Z,59.48
2018-03-16T06:47:14.631Z,59.47